Airport View

Enter AWOS ICAO identifier for current METAR.

ex. KFNL

KJWY 031655Z AUTO 21004KT 10SM 31/22 A3001 RMK AO2 T03130223

3 Jul 2020 17:14

Frequency: 119.575

Phone: 972-937-4747

Other Area AWOS: KLNC - KRBD - KGKY - KGPM

TAF AMD KGKY 031508Z 0315/0412 22007KT P6SM SCT160 SCT250 FM032000 18007KT P6SM VCTS SCT050CB SCT120 FM040000 16005KT P6SM SCT250